createdAt,value
2018-09-30T00:01:15.136Z,11.60
2018-09-30T00:03:44.208Z,11.50
2018-09-30T00:06:13.304Z,11.50
2018-09-30T00:08:42.446Z,11.50
2018-09-30T00:11:11.556Z,11.60
2018-09-30T00:13:40.655Z,11.50
2018-09-30T00:16:09.763Z,11.40
2018-09-30T00:18:38.855Z,11.40
2018-09-30T00:21:08.339Z,11.40
2018-09-30T00:23:42.790Z,11.40
2018-09-30T00:26:17.390Z,11.30
2018-09-30T00:28:46.470Z,11.20
2018-09-30T00:31:16.024Z,11.20
2018-09-30T00:33:50.289Z,11.10
2018-09-30T00:36:20.191Z,11.00
2018-09-30T00:38:49.262Z,11.00
2018-09-30T00:41:18.383Z,10.90
2018-09-30T00:43:47.505Z,10.90
2018-09-30T00:46:16.562Z,10.90
2018-09-30T00:48:45.654Z,10.90
2018-09-30T00:51:15.242Z,10.90
2018-09-30T00:53:44.320Z,10.80
2018-09-30T00:56:13.416Z,10.80
2018-09-30T00:58:42.551Z,10.80
2018-09-30T01:01:11.644Z,10.80
2018-09-30T01:03:40.724Z,10.70
2018-09-30T01:06:09.855Z,10.70
2018-09-30T01:08:38.954Z,10.60
2018-09-30T01:11:08.054Z,10.60
2018-09-30T01:13:37.145Z,10.60
2018-09-30T01:16:06.794Z,10.60
2018-09-30T01:18:35.904Z,10.50
2018-09-30T01:21:04.990Z,10.40
2018-09-30T01:23:34.286Z,10.50
2018-09-30T01:26:03.526Z,10.40
2018-09-30T01:28:32.843Z,10.40
2018-09-30T01:31:01.922Z,10.40
2018-09-30T01:33:31.425Z,10.30
2018-09-30T01:36:00.503Z,10.40
2018-09-30T01:38:29.625Z,10.40
2018-09-30T01:40:58.734Z,10.30
2018-09-30T01:43:27.821Z,10.40
2018-09-30T01:45:56.922Z,10.30
2018-09-30T01:48:26.034Z,10.10
2018-09-30T01:50:55.162Z,10.00
2018-09-30T01:53:24.308Z,10.10
2018-09-30T01:55:53.408Z,10.00
2018-09-30T01:58:22.506Z,10.10
2018-09-30T02:00:51.588Z,10.10
2018-09-30T02:03:20.694Z,10.10
2018-09-30T02:05:49.781Z,10.10
2018-09-30T02:08:19.309Z,10.10
2018-09-30T02:10:48.430Z,10.10
2018-09-30T02:13:17.540Z,10.10
2018-09-30T02:15:46.627Z,10.00
2018-09-30T02:18:15.730Z,10.10
2018-09-30T02:20:44.822Z,10.10
2018-09-30T02:23:13.954Z,10.00
2018-09-30T02:25:43.086Z,10.00
2018-09-30T02:28:12.200Z,9.90
2018-09-30T02:30:41.296Z,9.90
2018-09-30T02:35:36.932Z,9.90
2018-09-30T02:38:06.003Z,9.90
2018-09-30T02:40:35.665Z,9.90
2018-09-30T02:43:04.766Z,9.90
2018-09-30T02:45:33.878Z,9.90
2018-09-30T02:48:02.997Z,9.80
2018-09-30T02:50:32.241Z,9.70
2018-09-30T02:53:01.371Z,9.70
2018-09-30T02:55:30.512Z,9.70
2018-09-30T02:57:59.556Z,9.70
2018-09-30T03:00:28.638Z,9.80
2018-09-30T03:02:57.815Z,9.70
2018-09-30T03:05:26.978Z,9.80
2018-09-30T03:08:01.396Z,9.80
2018-09-30T03:10:30.492Z,9.80
2018-09-30T03:12:59.616Z,9.80
2018-09-30T03:15:28.720Z,9.80
2018-09-30T03:17:57.812Z,9.70
2018-09-30T03:20:26.906Z,9.70
2018-09-30T03:22:55.967Z,9.60
2018-09-30T03:25:25.106Z,9.70
2018-09-30T03:27:54.239Z,9.60
2018-09-30T03:30:23.479Z,9.60
2018-09-30T03:32:52.602Z,9.60
2018-09-30T03:35:21.945Z,9.60
2018-09-30T03:37:51.309Z,9.60
2018-09-30T03:40:20.368Z,9.50
2018-09-30T03:42:49.493Z,9.60
2018-09-30T03:45:18.538Z,9.70
2018-09-30T03:47:47.648Z,9.80
2018-09-30T03:50:16.766Z,9.60
2018-09-30T03:52:45.858Z,9.50
2018-09-30T03:55:14.934Z,9.50
2018-09-30T03:57:44.036Z,9.50
2018-09-30T04:00:13.217Z,9.40
2018-09-30T04:02:42.391Z,9.40
2018-09-30T04:05:11.465Z,9.20
2018-09-30T04:07:40.551Z,9.10
2018-09-30T04:10:09.685Z,9.10
2018-09-30T04:12:38.726Z,9.00
2018-09-30T04:15:07.842Z,9.00
2018-09-30T04:17:36.958Z,9.00
2018-09-30T04:20:06.105Z,9.00
2018-09-30T04:22:35.189Z,9.00
2018-09-30T04:25:04.414Z,8.90
2018-09-30T04:27:33.488Z,8.80
2018-09-30T04:30:02.573Z,8.80
2018-09-30T04:32:31.674Z,8.80
2018-09-30T04:35:00.738Z,8.80
2018-09-30T04:37:30.820Z,8.90
2018-09-30T04:40:00.315Z,8.90
2018-09-30T04:42:29.392Z,8.90
2018-09-30T04:44:58.476Z,8.90
2018-09-30T04:47:27.586Z,8.90
2018-09-30T04:49:56.664Z,8.90
2018-09-30T04:52:25.772Z,8.90
2018-09-30T04:54:54.864Z,8.90
2018-09-30T04:57:23.944Z,8.90
2018-09-30T04:59:53.366Z,9.00
2018-09-30T05:02:22.458Z,8.90
2018-09-30T05:04:51.966Z,9.00
2018-09-30T05:07:21.078Z,9.00
2018-09-30T05:09:50.165Z,9.00
2018-09-30T05:12:19.298Z,9.10
2018-09-30T05:14:48.406Z,9.20
2018-09-30T05:17:17.490Z,9.20
2018-09-30T05:19:46.674Z,9.30
2018-09-30T05:22:15.782Z,9.30
2018-09-30T05:24:44.920Z,9.20
2018-09-30T05:27:13.998Z,9.30
2018-09-30T05:29:43.144Z,9.30
2018-09-30T05:32:12.222Z,9.40
2018-09-30T05:34:41.300Z,9.50
2018-09-30T05:37:11.160Z,9.50
2018-09-30T05:39:40.220Z,9.50
2018-09-30T05:42:09.486Z,9.50
2018-09-30T05:44:38.736Z,9.60
2018-09-30T05:47:08.030Z,9.60
2018-09-30T05:49:37.222Z,9.60
2018-09-30T05:52:06.425Z,9.60
2018-09-30T05:54:35.502Z,9.70
2018-09-30T05:57:04.698Z,9.80
2018-09-30T05:59:33.806Z,9.70
2018-09-30T06:02:02.872Z,9.80
2018-09-30T06:04:31.940Z,9.80
2018-09-30T06:07:01.800Z,9.80
2018-09-30T06:09:30.993Z,9.90
2018-09-30T06:12:00.045Z,9.90
2018-09-30T06:14:29.131Z,10.00
2018-09-30T06:16:58.214Z,10.00
2018-09-30T06:19:27.260Z,9.90
2018-09-30T06:21:56.380Z,9.80
2018-09-30T06:24:25.489Z,9.90
2018-09-30T06:26:54.597Z,10.00
2018-09-30T06:29:23.694Z,10.10
2018-09-30T06:31:52.785Z,10.20
2018-09-30T06:34:21.867Z,10.30
2018-09-30T06:36:51.129Z,10.40
2018-09-30T06:39:20.190Z,10.50
2018-09-30T06:41:49.303Z,10.50
2018-09-30T06:44:18.508Z,10.50
2018-09-30T06:46:47.563Z,10.40
2018-09-30T06:49:16.632Z,10.40
2018-09-30T06:51:45.754Z,10.40
2018-09-30T06:54:14.798Z,10.60
2018-09-30T06:56:44.416Z,10.50
2018-09-30T06:59:13.532Z,10.60
2018-09-30T07:01:43.054Z,10.50
2018-09-30T07:04:12.123Z,10.50
2018-09-30T07:06:41.202Z,10.60
2018-09-30T07:09:10.283Z,10.50
2018-09-30T07:11:39.375Z,10.50
2018-09-30T07:14:08.469Z,10.60
2018-09-30T07:16:37.583Z,10.60
2018-09-30T07:19:06.710Z,10.50
2018-09-30T07:21:36.001Z,10.60
2018-09-30T07:24:05.114Z,10.70
2018-09-30T07:26:34.256Z,10.60
2018-09-30T07:29:03.395Z,10.70
2018-09-30T07:31:32.649Z,10.80
2018-09-30T07:34:01.767Z,10.90
2018-09-30T07:36:30.864Z,11.00
2018-09-30T07:38:59.955Z,11.20
2018-09-30T07:41:29.757Z,11.30
2018-09-30T07:43:58.839Z,11.40
2018-09-30T07:46:28.299Z,11.30
2018-09-30T07:48:57.419Z,11.40
2018-09-30T07:51:26.538Z,11.50
2018-09-30T07:53:55.841Z,11.60
2018-09-30T07:56:25.009Z,11.60
2018-09-30T07:58:54.119Z,11.60
2018-09-30T08:01:23.209Z,11.70
2018-09-30T08:03:53.276Z,11.80
2018-09-30T08:06:22.386Z,12.10
2018-09-30T08:08:51.418Z,12.10
2018-09-30T08:11:20.497Z,12.30
2018-09-30T08:13:49.590Z,12.10
2018-09-30T08:16:18.733Z,12.10
2018-09-30T08:18:47.790Z,12.00
2018-09-30T08:21:16.871Z,12.20
2018-09-30T08:23:46.046Z,12.30
2018-09-30T08:26:15.137Z,12.30
2018-09-30T08:28:44.413Z,12.40
2018-09-30T08:31:13.468Z,12.50
2018-09-30T08:33:42.539Z,12.40
2018-09-30T08:36:11.681Z,12.50
2018-09-30T08:38:42.014Z,12.60
2018-09-30T08:41:11.968Z,12.60
2018-09-30T08:43:42.378Z,12.90
2018-09-30T08:46:11.425Z,12.90
2018-09-30T08:48:40.796Z,13.10
2018-09-30T08:51:09.911Z,13.20
2018-09-30T08:53:38.959Z,13.30
2018-09-30T08:56:08.040Z,13.20
2018-09-30T08:58:37.118Z,13.20
2018-09-30T09:01:06.261Z,13.50
2018-09-30T09:03:35.333Z,13.80
2018-09-30T09:06:04.449Z,13.90
2018-09-30T09:08:33.531Z,14.00
2018-09-30T09:11:02.641Z,14.00
2018-09-30T09:13:31.709Z,14.10
2018-09-30T09:16:00.823Z,14.20
2018-09-30T09:18:29.904Z,14.20
2018-09-30T09:20:59.038Z,14.30
2018-09-30T09:23:28.365Z,14.10
2018-09-30T09:25:57.458Z,14.40
2018-09-30T09:28:26.547Z,14.50
2018-09-30T09:30:55.617Z,14.70
2018-09-30T09:33:24.716Z,15.00
2018-09-30T09:35:54.181Z,15.10
2018-09-30T09:38:23.380Z,15.10
2018-09-30T09:40:52.447Z,15.00
2018-09-30T09:43:21.562Z,15.20
2018-09-30T09:45:50.694Z,15.40
2018-09-30T09:48:19.899Z,15.50
2018-09-30T09:50:49.230Z,15.80
2018-09-30T09:53:18.556Z,16.00
2018-09-30T09:55:47.784Z,16.10
2018-09-30T09:58:16.891Z,16.50
2018-09-30T10:00:46.637Z,16.60
2018-09-30T10:03:16.669Z,16.70
2018-09-30T10:05:45.779Z,17.10
2018-09-30T10:08:14.965Z,17.40
2018-09-30T10:10:44.274Z,17.50
2018-09-30T10:13:13.449Z,17.50
2018-09-30T10:15:42.489Z,17.60
2018-09-30T10:18:11.552Z,17.50
2018-09-30T10:20:40.639Z,17.70
2018-09-30T10:23:09.812Z,18.00
2018-09-30T10:25:39.435Z,17.90
2018-09-30T10:28:08.518Z,18.10
2018-09-30T10:30:38.457Z,18.20
2018-09-30T10:33:08.165Z,18.30
2018-09-30T10:35:37.255Z,18.60
2018-09-30T10:38:06.397Z,18.70
2018-09-30T10:40:35.490Z,18.40
2018-09-30T10:43:04.616Z,18.30
2018-09-30T10:45:33.714Z,18.50
2018-09-30T10:48:02.805Z,18.70
2018-09-30T10:50:31.887Z,18.60
2018-09-30T10:53:01.335Z,18.60
2018-09-30T10:55:30.389Z,18.60
2018-09-30T10:57:59.467Z,19.00
2018-09-30T11:00:28.961Z,19.20
2018-09-30T11:02:58.281Z,19.80
2018-09-30T11:05:28.032Z,19.80
2018-09-30T11:07:57.129Z,19.70
2018-09-30T11:10:26.210Z,19.50
2018-09-30T11:12:55.303Z,19.10
2018-09-30T11:15:24.368Z,18.90
2018-09-30T11:17:53.457Z,18.70
2018-09-30T11:20:22.568Z,18.60
2018-09-30T11:22:51.766Z,19.70
2018-09-30T11:25:20.873Z,20.00
2018-09-30T11:27:50.060Z,20.70
2018-09-30T11:30:19.161Z,21.40
2018-09-30T11:32:48.268Z,22.20
2018-09-30T11:35:17.350Z,23.10
2018-09-30T11:37:46.455Z,24.60
2018-09-30T11:40:15.659Z,26.00
2018-09-30T11:42:45.205Z,26.30
2018-09-30T11:45:14.286Z,26.60
2018-09-30T11:47:43.365Z,26.50
2018-09-30T11:50:12.590Z,26.70
2018-09-30T11:52:41.759Z,27.00
2018-09-30T11:55:11.305Z,26.50
2018-09-30T11:57:40.421Z,27.30
2018-09-30T12:00:10.435Z,28.60
2018-09-30T12:02:39.555Z,30.00
2018-09-30T12:05:08.637Z,29.60
2018-09-30T12:07:38.020Z,28.80
2018-09-30T12:10:07.154Z,29.10
2018-09-30T12:12:36.232Z,29.90
2018-09-30T12:15:05.424Z,30.20
2018-09-30T12:17:34.521Z,30.50
2018-09-30T12:20:04.177Z,29.80
2018-09-30T12:22:33.245Z,28.90
2018-09-30T12:25:02.309Z,29.50
2018-09-30T12:27:31.398Z,30.40
2018-09-30T12:30:00.553Z,30.30
2018-09-30T12:32:30.054Z,30.30
2018-09-30T12:34:59.155Z,30.60
2018-09-30T12:37:28.225Z,30.90
2018-09-30T12:39:57.557Z,29.40
2018-09-30T12:42:26.638Z,30.10
2018-09-30T12:44:55.750Z,30.50
2018-09-30T12:47:25.126Z,30.90
2018-09-30T12:49:54.204Z,29.70
2018-09-30T12:52:23.339Z,30.30
2018-09-30T12:54:52.458Z,30.10
2018-09-30T12:57:21.736Z,29.60
2018-09-30T12:59:50.797Z,29.30
2018-09-30T13:02:19.887Z,29.60
2018-09-30T13:04:48.943Z,29.60
2018-09-30T13:07:18.019Z,29.30
2018-09-30T13:09:47.110Z,29.50
2018-09-30T13:12:16.185Z,30.20
2018-09-30T13:14:45.287Z,29.90
2018-09-30T13:17:14.340Z,30.60
2018-09-30T13:19:43.426Z,30.90
2018-09-30T13:22:12.504Z,31.00
2018-09-30T13:24:41.611Z,31.50
2018-09-30T13:27:10.699Z,31.30
2018-09-30T13:29:39.786Z,31.70
2018-09-30T13:32:08.881Z,32.90
2018-09-30T13:34:38.062Z,33.40
2018-09-30T13:37:07.139Z,33.40
2018-09-30T13:39:36.217Z,32.80
2018-09-30T13:42:05.353Z,33.00
2018-09-30T13:44:34.442Z,32.90
2018-09-30T13:47:03.529Z,33.70
2018-09-30T13:49:32.605Z,34.30
2018-09-30T13:52:01.682Z,34.00
2018-09-30T13:54:30.825Z,33.50
2018-09-30T13:56:59.927Z,34.40
2018-09-30T13:59:29.115Z,34.70
2018-09-30T14:01:58.252Z,34.60
2018-09-30T14:04:27.318Z,34.50
2018-09-30T14:06:56.473Z,35.30
2018-09-30T14:09:25.619Z,34.60
2018-09-30T14:11:54.689Z,34.70
2018-09-30T14:14:23.795Z,34.10
2018-09-30T14:16:52.844Z,34.00
2018-09-30T14:19:21.925Z,33.70
2018-09-30T14:21:51.005Z,34.80
2018-09-30T14:24:20.107Z,35.00
2018-09-30T14:26:49.310Z,34.80
2018-09-30T14:29:18.305Z,34.50
2018-09-30T14:31:47.435Z,34.40
2018-09-30T14:34:16.577Z,33.90
2018-09-30T14:36:45.787Z,33.20
2018-09-30T14:39:14.877Z,33.10
2018-09-30T14:41:43.947Z,33.30
2018-09-30T14:44:13.033Z,33.70
2018-09-30T14:46:42.121Z,33.80
2018-09-30T14:49:11.245Z,33.90
2018-09-30T14:51:40.931Z,33.90
2018-09-30T14:54:10.004Z,33.30
2018-09-30T14:56:39.117Z,32.90
2018-09-30T14:59:08.238Z,33.20
2018-09-30T15:01:37.460Z,33.10
2018-09-30T15:04:06.575Z,32.40
2018-09-30T15:06:35.800Z,32.20
2018-09-30T15:09:07.580Z,31.90
2018-09-30T15:11:36.681Z,31.90
2018-09-30T15:14:05.730Z,31.80
2018-09-30T15:16:34.801Z,31.00
2018-09-30T15:19:04.213Z,30.60
2018-09-30T15:21:33.343Z,30.90
2018-09-30T15:24:02.451Z,31.00
2018-09-30T15:26:31.693Z,29.70
2018-09-30T15:29:00.813Z,29.50
2018-09-30T15:31:29.931Z,29.40
2018-09-30T15:33:59.029Z,29.00
2018-09-30T15:36:28.109Z,28.60
2018-09-30T15:38:57.203Z,28.30
2018-09-30T15:41:26.305Z,27.50
2018-09-30T15:43:55.426Z,26.80
2018-09-30T15:46:24.501Z,25.80
2018-09-30T15:48:53.583Z,25.10
2018-09-30T15:51:22.705Z,24.90
2018-09-30T15:53:51.762Z,24.60
2018-09-30T15:56:20.814Z,24.60
2018-09-30T15:58:49.913Z,24.30
2018-09-30T16:01:18.958Z,25.00
2018-09-30T16:03:48.102Z,25.00
2018-09-30T16:06:17.195Z,24.60
2018-09-30T16:08:46.272Z,24.60
2018-09-30T16:11:15.364Z,24.10
2018-09-30T16:13:44.996Z,23.60
2018-09-30T16:16:14.065Z,23.10
2018-09-30T16:18:43.160Z,23.00
2018-09-30T16:21:12.285Z,23.10
2018-09-30T16:23:41.306Z,23.40
2018-09-30T16:26:10.403Z,23.50
2018-09-30T16:28:39.694Z,23.60
2018-09-30T16:31:09.107Z,23.90
2018-09-30T16:33:38.171Z,23.80
2018-09-30T16:36:07.290Z,23.70
2018-09-30T16:38:36.408Z,23.50
2018-09-30T16:41:05.502Z,23.30
2018-09-30T16:43:34.582Z,23.10
2018-09-30T16:46:03.677Z,22.90
2018-09-30T16:48:32.763Z,22.80
2018-09-30T16:51:02.513Z,22.60
2018-09-30T16:53:31.586Z,22.40
2018-09-30T16:56:00.724Z,22.30
2018-09-30T16:58:29.835Z,22.30
2018-09-30T17:00:58.916Z,22.00
2018-09-30T17:03:28.240Z,21.80
2018-09-30T17:05:57.601Z,21.70
2018-09-30T17:08:26.669Z,21.60
2018-09-30T17:10:55.746Z,21.40
2018-09-30T17:13:24.878Z,21.10
2018-09-30T17:15:53.980Z,21.10
2018-09-30T17:18:23.042Z,21.00
2018-09-30T17:20:53.121Z,20.90
2018-09-30T17:23:22.305Z,20.90
2018-09-30T17:25:51.468Z,20.80
2018-09-30T17:28:20.559Z,20.70
2018-09-30T17:30:49.731Z,20.60
2018-09-30T17:33:18.819Z,20.50
2018-09-30T17:35:47.928Z,20.50
2018-09-30T17:38:17.004Z,20.40
2018-09-30T17:40:46.953Z,20.30
2018-09-30T17:43:16.028Z,20.50
2018-09-30T17:45:45.199Z,20.30
2018-09-30T17:48:14.575Z,20.30
2018-09-30T17:50:44.068Z,20.20
2018-09-30T17:53:13.456Z,20.10
2018-09-30T17:55:42.792Z,20.00
2018-09-30T17:58:11.949Z,19.70
2018-09-30T18:00:41.214Z,19.70
2018-09-30T18:03:10.623Z,19.60
2018-09-30T18:05:39.927Z,19.50
2018-09-30T18:08:09.381Z,19.50
2018-09-30T18:10:38.628Z,19.40
2018-09-30T18:13:07.864Z,19.20
2018-09-30T18:15:37.312Z,19.10
2018-09-30T18:18:06.936Z,19.00
2018-09-30T18:20:36.150Z,18.90
2018-09-30T18:23:05.433Z,18.40
2018-09-30T18:25:34.648Z,18.10
2018-09-30T18:28:04.542Z,17.90
2018-09-30T18:30:34.178Z,17.50
2018-09-30T18:33:04.386Z,17.10
2018-09-30T18:35:33.702Z,16.80
2018-09-30T18:38:03.274Z,16.50
2018-09-30T18:40:47.764Z,16.30
2018-09-30T18:43:17.532Z,16.10
2018-09-30T18:45:47.004Z,16.00
2018-09-30T18:48:17.150Z,15.90
2018-09-30T18:50:46.671Z,15.40
2018-09-30T18:53:16.937Z,15.40
2018-09-30T18:55:46.629Z,15.40
2018-09-30T18:58:18.213Z,15.20
2018-09-30T19:00:47.800Z,15.10
2018-09-30T19:03:17.907Z,15.00
2018-09-30T19:05:47.516Z,15.00
2018-09-30T19:08:17.442Z,15.00
2018-09-30T19:10:47.974Z,15.10
2018-09-30T19:13:17.720Z,15.10
2018-09-30T19:15:48.140Z,15.20
2018-09-30T19:18:17.784Z,15.20
2018-09-30T19:20:47.301Z,15.30
2018-09-30T19:23:16.754Z,15.30
2018-09-30T19:25:46.026Z,15.20
2018-09-30T19:28:15.328Z,15.10
2018-09-30T19:30:44.656Z,15.30
2018-09-30T19:33:15.024Z,15.20
2018-09-30T19:35:44.618Z,15.10
2018-09-30T19:38:14.111Z,15.20
2018-09-30T19:40:43.871Z,15.10
2018-09-30T19:43:13.301Z,15.20
2018-09-30T19:45:44.450Z,15.10
2018-09-30T19:48:15.120Z,14.90
2018-09-30T19:50:44.629Z,14.80
2018-09-30T19:53:14.173Z,14.70
2018-09-30T19:55:43.917Z,14.70
2018-09-30T19:58:14.806Z,14.70
2018-09-30T20:00:45.597Z,14.50
2018-09-30T20:03:18.771Z,14.60
2018-09-30T20:05:49.309Z,14.50
2018-09-30T20:08:19.010Z,14.50
2018-09-30T20:10:48.596Z,14.50
2018-09-30T20:13:18.179Z,14.60
2018-09-30T20:15:48.410Z,14.60
2018-09-30T20:18:17.881Z,14.60
2018-09-30T20:20:47.708Z,14.50
2018-09-30T20:23:18.445Z,14.40
2018-09-30T20:25:47.962Z,14.40
2018-09-30T20:28:17.558Z,14.60
2018-09-30T20:30:47.205Z,14.50
2018-09-30T20:33:16.791Z,14.40
2018-09-30T20:35:46.762Z,14.50
2018-09-30T20:38:16.330Z,14.50
2018-09-30T20:40:45.754Z,14.30
2018-09-30T20:43:16.155Z,14.40
2018-09-30T20:45:45.780Z,14.50
2018-09-30T20:48:15.694Z,14.50
2018-09-30T20:50:45.256Z,14.50
2018-09-30T20:53:14.651Z,14.60
2018-09-30T20:55:44.177Z,14.50
2018-09-30T20:58:14.278Z,14.40
2018-09-30T21:00:44.698Z,14.40
2018-09-30T21:03:13.976Z,14.40
2018-09-30T21:06:51.382Z,14.40
2018-09-30T21:09:22.070Z,14.40
2018-09-30T21:11:51.482Z,14.60
2018-09-30T21:14:21.247Z,14.60
2018-09-30T21:16:52.081Z,14.40
2018-09-30T21:19:22.840Z,14.20
2018-09-30T21:21:52.690Z,14.30
2018-09-30T21:24:22.007Z,14.40
2018-09-30T21:26:51.303Z,14.30
2018-09-30T21:29:20.602Z,14.40
2018-09-30T21:31:49.800Z,14.40
2018-09-30T21:34:19.147Z,14.30
2018-09-30T21:36:48.943Z,14.40
2018-09-30T21:39:18.242Z,14.20
2018-09-30T21:41:47.844Z,14.30
2018-09-30T21:44:17.970Z,14.30
2018-09-30T21:46:47.694Z,14.40
2018-09-30T21:49:17.827Z,14.40
2018-09-30T21:51:47.829Z,14.40
2018-09-30T21:54:17.032Z,14.30
2018-09-30T21:56:46.521Z,14.40
2018-09-30T21:59:15.973Z,14.30
2018-09-30T22:01:45.207Z,14.20
2018-09-30T22:04:14.418Z,14.20
2018-09-30T22:06:43.637Z,14.10
2018-09-30T22:09:13.166Z,14.00
2018-09-30T22:11:43.084Z,14.00
2018-09-30T22:14:12.412Z,14.00
2018-09-30T22:16:41.706Z,13.90
2018-09-30T22:19:10.955Z,13.90
2018-09-30T22:21:40.122Z,13.90
2018-09-30T22:24:09.358Z,13.90
2018-09-30T22:26:38.610Z,13.90
2018-09-30T22:29:07.846Z,13.70
2018-09-30T22:31:37.046Z,13.70
2018-09-30T22:34:06.294Z,13.70
2018-09-30T22:36:35.542Z,13.60
2018-09-30T22:39:06.441Z,13.70
2018-09-30T22:41:35.831Z,13.60
2018-09-30T22:44:05.196Z,13.60
2018-09-30T22:46:34.394Z,13.60
2018-09-30T22:49:03.639Z,13.60
2018-09-30T22:51:32.958Z,13.50
2018-09-30T22:54:02.141Z,13.50
2018-09-30T22:56:31.297Z,13.40
2018-09-30T22:59:01.496Z,13.50
2018-09-30T23:01:30.673Z,13.60
2018-09-30T23:04:00.134Z,13.60
2018-09-30T23:06:29.290Z,13.60
2018-09-30T23:08:59.854Z,13.40
2018-09-30T23:11:29.039Z,13.40
2018-09-30T23:13:58.414Z,13.40
2018-09-30T23:16:27.582Z,13.40
2018-09-30T23:18:56.666Z,13.50
2018-09-30T23:21:27.026Z,13.40
2018-09-30T23:23:56.758Z,13.50
2018-09-30T23:26:25.916Z,13.40
2018-09-30T23:28:55.055Z,13.40
2018-09-30T23:31:24.916Z,13.50
2018-09-30T23:33:55.140Z,13.60
2018-09-30T23:36:24.332Z,13.50
2018-09-30T23:38:53.568Z,13.60
2018-09-30T23:41:22.689Z,13.60
2018-09-30T23:43:51.956Z,13.50
2018-09-30T23:46:21.362Z,13.60
2018-09-30T23:48:50.717Z,13.60
2018-09-30T23:51:19.845Z,13.70
2018-09-30T23:53:49.190Z,13.40
2018-09-30T23:56:18.747Z,13.20
2018-09-30T23:58:48.027Z,13.30
